CheckWX is a tool to help pilots better visualize weather data.  It is not intended as a substitute for an official pre-flight weather briefing.

13:54:59 UTC

KTMK METAR
Tillamook Airport
Tillamook, Oregon, USA
Current

20 mins ago

KTMK 091335Z AUTO 00000KT 10SM OVC060 11/11 A3005 RMK AO2
Observed
Jul-9 @ 13:35 UTC
Visibility
10 SM
Flight Rules
VFR
Cloud Levels
  • Overcast at 6,000' AGL
Temperature
11°C / 52°F
Dewpoint
11°C / 52°F
Humidity
100%
Altimeter
30.05" Hg
Pressure
1017.62 hPa
Previous

40 mins ago

KTMK 091315Z AUTO 00000KT 10SM OVC060 11/11 A3005 RMK AO2
Observed
Jul-9 @ 13:15 UTC
Visibility
10 SM
Flight Rules
VFR
Cloud Levels
  • Overcast at 6,000' AGL
Temperature
11°C / 52°F
Dewpoint
11°C / 52°F
Humidity
100%
Altimeter
30.05" Hg
Pressure
1017.62 hPa
Previous

60 mins ago

KTMK 091255Z AUTO 00000KT 10SM OVC060 11/11 A3004 RMK AO2
Observed
Jul-9 @ 12:55 UTC
Visibility
10 SM
Flight Rules
VFR
Cloud Levels
  • Overcast at 6,000' AGL
Temperature
11°C / 52°F
Dewpoint
11°C / 52°F
Humidity
100%
Altimeter
30.04" Hg
Pressure
1017.32 hPa